Time;durP1;ratioP1;P1;durP2;ratioP2;P2;SDS_P1;SDS_P2;PMS_P1;PMS_P2;Temp;Humidity;BMP_temperature;BMP_pressure;BME280_temperature;BME280_humidity;BME280_pressure;Samples;Min_cycle;Max_cycle;Signal;HPM_P1;HPM_P2
2022/04/11 00:00:36;;;;;;;9.20;5.70;;;2.20;99.90;;;;;;5070824;28;20496;-63
2022/04/11 00:03:02;;;;;;;14.05;6.65;;;2.10;99.90;;;;;;5070770;28;20493;-63
2022/04/11 00:05:28;;;;;;;14.15;6.63;;;2.10;99.90;;;;;;5070204;28;20074;-63
2022/04/11 00:07:53;;;;;;;7.95;5.20;;;2.10;99.90;;;;;;5070969;28;20039;-63
2022/04/11 00:10:19;;;;;;;7.65;4.72;;;2.00;99.90;;;;;;5070618;28;20448;-63
2022/04/11 00:12:45;;;;;;;9.63;5.07;;;2.10;99.90;;;;;;5070233;28;20032;-63
2022/04/11 00:15:10;;;;;;;8.07;4.95;;;2.00;99.90;;;;;;5070448;28;20055;-63
2022/04/11 00:17:36;;;;;;;7.70;5.05;;;2.00;99.90;;;;;;5070908;28;20411;-63
2022/04/11 00:20:05;;;;;;;5.28;4.47;;;2.00;99.90;;;;;;5070175;28;20051;-63
2022/04/11 00:22:38;;;;;;;7.75;5.13;;;2.00;99.90;;;;;;5070090;28;20068;-62
2022/04/11 00:25:05;;;;;;;8.32;4.55;;;2.00;99.90;;;;;;5070750;28;20046;-62
2022/04/11 00:27:31;;;;;;;14.70;4.88;;;2.00;99.90;;;;;;5069885;28;20048;-63
2022/04/11 00:29:57;;;;;;;7.65;4.55;;;1.90;99.90;;;;;;5068795;28;20037;-63
2022/04/11 00:32:23;;;;;;;6.47;4.47;;;1.90;99.90;;;;;;5068695;28;20386;-63
2022/04/11 00:34:48;;;;;;;8.70;4.53;;;1.90;99.90;;;;;;5065091;28;20516;-63
2022/04/11 00:37:15;;;;;;;8.18;5.07;;;1.80;99.90;;;;;;5070243;28;20060;-63
2022/04/11 00:39:40;;;;;;;5.57;4.43;;;1.80;99.90;;;;;;5071350;28;20071;-63
2022/04/11 00:42:08;;;;;;;8.20;4.93;;;1.80;99.90;;;;;;5069088;28;20495;-62
2022/04/11 00:44:34;;;;;;;11.18;4.95;;;1.80;99.90;;;;;;5070499;28;20136;-63
2022/04/11 00:46:59;;;;;;;5.57;4.25;;;1.80;99.90;;;;;;5069672;28;20127;-63
2022/04/11 00:49:25;;;;;;;5.75;5.00;;;1.70;99.90;;;;;;5067890;28;20109;-63
2022/04/11 00:51:51;;;;;;;9.95;5.60;;;1.70;99.90;;;;;;5051918;28;20045;-63
2022/04/11 00:54:17;;;;;;;9.93;5.88;;;1.70;99.90;;;;;;5069604;28;20032;-63
2022/04/11 00:56:44;;;;;;;9.18;4.88;;;1.70;99.90;;;;;;5062051;28;20121;-63
2022/04/11 00:59:10;;;;;;;8.88;6.20;;;1.60;99.90;;;;;;5069730;28;20098;-63
2022/04/11 01:01:36;;;;;;;8.02;5.88;;;1.60;99.90;;;;;;5069845;28;20056;-63
2022/04/11 01:04:02;;;;;;;10.63;5.82;;;1.60;99.90;;;;;;5069718;28;20082;-63
2022/04/11 01:06:28;;;;;;;12.70;7.18;;;1.60;99.90;;;;;;5067171;28;20055;-63
2022/04/11 01:08:54;;;;;;;11.18;6.13;;;1.60;99.90;;;;;;5069405;28;20044;-63
2022/04/11 01:11:20;;;;;;;6.75;5.45;;;1.60;99.90;;;;;;5069364;28;20056;-63
2022/04/11 01:13:46;;;;;;;10.23;6.85;;;1.50;99.90;;;;;;5069487;28;20098;-63
2022/04/11 01:16:12;;;;;;;9.25;6.65;;;1.50;99.90;;;;;;5069173;28;20446;-63
2022/04/11 01:18:39;;;;;;;10.70;7.57;;;1.50;99.90;;;;;;5068629;28;20076;-63
2022/04/11 01:21:08;;;;;;;15.85;8.15;;;1.50;99.90;;;;;;5068116;28;20481;-63
2022/04/11 01:23:34;;;;;;;8.63;5.50;;;1.50;99.90;;;;;;5069679;28;20123;-63
2022/04/11 01:26:00;;;;;;;9.70;6.10;;;1.50;99.90;;;;;;5069181;28;20163;-63
2022/04/11 01:28:25;;;;;;;13.07;6.63;;;1.40;99.90;;;;;;5063151;28;20040;-63
2022/04/11 01:30:54;;;;;;;8.60;6.03;;;1.40;99.90;;;;;;5068837;28;20131;-63
2022/04/11 01:33:22;;;;;;;10.55;6.97;;;1.40;99.90;;;;;;5069235;28;20044;-63
2022/04/11 01:35:48;;;;;;;8.32;5.93;;;1.40;99.90;;;;;;5068891;28;20109;-63
2022/04/11 01:38:14;;;;;;;7.03;6.13;;;1.40;99.90;;;;;;5069175;28;20036;-63
2022/04/11 01:40:56;;;;;;;8.80;6.07;;;1.40;99.90;;;;;;5063647;28;20072;-63
2022/04/11 01:43:23;;;;;;;11.88;6.10;;;1.40;99.90;;;;;;5056236;28;20114;-63
2022/04/11 01:45:49;;;;;;;10.52;6.70;;;1.40;99.90;;;;;;5068761;28;20048;-64
2022/04/11 01:48:15;;;;;;;8.43;6.68;;;1.30;99.90;;;;;;5059274;28;20162;-63
2022/04/11 01:50:41;;;;;;;8.38;5.82;;;1.30;99.90;;;;;;5068903;28;20043;-64
2022/04/11 01:53:09;;;;;;;11.23;6.53;;;1.30;99.90;;;;;;5068739;28;20045;-63
2022/04/11 01:55:35;;;;;;;9.48;6.32;;;1.30;99.90;;;;;;5067051;28;20600;-64
2022/04/11 01:58:02;;;;;;;9.18;6.68;;;1.30;99.90;;;;;;5064814;28;20045;-63
2022/04/11 02:00:27;;;;;;;12.57;7.32;;;1.30;99.90;;;;;;5068212;28;20053;-63
2022/04/11 02:02:53;;;;;;;12.52;5.93;;;1.30;99.90;;;;;;5068902;28;20425;-63
2022/04/11 02:05:19;;;;;;;13.57;6.93;;;1.30;99.90;;;;;;5067729;28;20049;-63
2022/04/11 02:07:45;;;;;;;13.27;7.20;;;1.30;99.90;;;;;;5068975;28;20044;-63
2022/04/11 02:10:10;;;;;;;13.52;6.60;;;1.20;99.90;;;;;;5059372;28;20041;-63
2022/04/11 02:12:36;;;;;;;9.27;6.72;;;1.20;99.90;;;;;;5057679;28;20041;-63
2022/04/11 02:15:02;;;;;;;9.48;5.88;;;1.20;99.90;;;;;;5069092;28;20041;-63
2022/04/11 02:17:27;;;;;;;10.40;5.82;;;1.20;99.90;;;;;;5068265;28;20048;-63
2022/04/11 02:19:53;;;;;;;12.07;6.45;;;1.20;99.90;;;;;;5068620;28;20041;-63
2022/04/11 02:22:19;;;;;;;10.63;5.25;;;1.30;99.90;;;;;;5068530;28;20055;-63
2022/04/11 02:24:44;;;;;;;10.02;5.57;;;1.20;99.90;;;;;;5050691;28;20044;-64
2022/04/11 02:27:11;;;;;;;13.15;7.47;;;1.30;99.90;;;;;;5048869;28;20560;-63
2022/04/11 02:29:37;;;;;;;10.20;6.65;;;1.30;99.90;;;;;;5047697;28;20399;-63
2022/04/11 02:32:03;;;;;;;14.77;6.85;;;1.30;99.90;;;;;;5048406;28;20057;-63
2022/04/11 02:34:29;;;;;;;11.48;7.70;;;1.20;99.90;;;;;;5048939;28;20387;-63
2022/04/11 02:36:55;;;;;;;12.48;8.25;;;1.20;99.90;;;;;;5048386;28;20049;-64
2022/04/11 02:39:21;;;;;;;10.63;7.55;;;1.20;99.90;;;;;;5047435;28;20053;-63
2022/04/11 02:41:47;;;;;;;8.93;6.47;;;1.20;99.90;;;;;;5057618;28;20048;-63
2022/04/11 02:44:14;;;;;;;12.57;7.95;;;1.20;99.90;;;;;;5054976;28;20409;-63
2022/04/11 02:46:42;;;;;;;11.80;7.40;;;1.20;99.90;;;;;;5067484;28;20498;-64
2022/04/11 02:49:08;;;;;;;13.27;8.00;;;1.20;99.90;;;;;;5067579;28;20044;-64
2022/04/11 02:51:34;;;;;;;11.15;7.65;;;1.10;99.90;;;;;;5067724;28;20033;-63
2022/04/11 02:54:07;;;;;;;13.68;7.82;;;1.10;99.90;;;;;;5071745;28;20398;-63
2022/04/11 02:56:34;;;;;;;13.20;7.80;;;1.20;99.90;;;;;;5071934;28;20068;-63
2022/04/11 02:59:00;;;;;;;13.50;8.60;;;1.10;99.90;;;;;;5063057;28;20048;-63
2022/04/11 03:01:25;;;;;;;12.48;7.53;;;1.10;99.90;;;;;;5071179;28;20045;-63
2022/04/11 03:03:51;;;;;;;9.73;7.53;;;1.10;99.90;;;;;;5072256;28;20064;-64
2022/04/11 03:06:17;;;;;;;12.38;7.07;;;1.10;99.90;;;;;;5071557;28;20055;-63
2022/04/11 03:08:42;;;;;;;14.43;8.20;;;1.00;99.90;;;;;;5071665;28;20071;-64
2022/04/11 03:11:08;;;;;;;13.77;7.53;;;1.00;99.90;;;;;;5069758;28;20401;-63
2022/04/11 03:13:33;;;;;;;16.65;7.60;;;1.10;99.90;;;;;;5071552;28;20036;-63
2022/04/11 03:15:59;;;;;;;9.48;6.00;;;1.00;99.90;;;;;;5071516;28;20040;-63
2022/04/11 03:18:25;;;;;;;12.63;7.30;;;1.00;99.90;;;;;;5071297;28;20451;-64
2022/04/11 03:20:50;;;;;;;9.93;6.97;;;1.00;99.90;;;;;;5071813;28;20057;-63
2022/04/11 03:23:16;;;;;;;8.00;5.97;;;1.00;99.90;;;;;;5071092;28;20051;-64
2022/04/11 03:25:43;;;;;;;14.38;8.30;;;1.00;99.90;;;;;;5070633;28;20139;-64
2022/04/11 03:28:08;;;;;;;10.45;7.00;;;1.00;99.90;;;;;;5053005;28;20040;-64
2022/04/11 03:30:34;;;;;;;11.02;6.15;;;1.00;99.90;;;;;;5071528;28;20098;-64
2022/04/11 03:32:59;;;;;;;12.45;7.72;;;0.90;99.90;;;;;;5071603;28;20080;-64
2022/04/11 03:35:25;;;;;;;9.50;7.10;;;0.90;99.90;;;;;;5071210;28;20149;-64
2022/04/11 03:37:51;;;;;;;10.95;7.88;;;0.90;99.90;;;;;;5071368;28;20041;-64
2022/04/11 03:40:16;;;;;;;12.07;7.75;;;0.90;99.90;;;;;;5066576;28;20489;-64
2022/04/11 03:42:42;;;;;;;14.18;8.80;;;0.90;99.90;;;;;;5070678;28;20419;-64
2022/04/11 03:45:10;;;;;;;11.52;7.28;;;0.90;99.90;;;;;;5063639;28;20445;-64
2022/04/11 03:47:36;;;;;;;7.85;6.45;;;0.80;99.90;;;;;;5075260;28;20080;-63
2022/04/11 03:50:03;;;;;;;14.95;7.97;;;0.80;99.90;;;;;;5071238;28;20083;-64
2022/04/11 03:52:28;;;;;;;12.65;8.02;;;0.80;99.90;;;;;;5070742;28;20048;-63
2022/04/11 03:54:54;;;;;;;11.95;7.30;;;0.90;99.90;;;;;;5069611;28;20043;-64
2022/04/11 03:57:20;;;;;;;17.85;8.85;;;0.80;99.90;;;;;;5070637;28;20052;-64
2022/04/11 03:59:46;;;;;;;10.40;7.95;;;0.80;99.90;;;;;;5066824;28;20060;-64
2022/04/11 04:02:11;;;;;;;9.68;7.53;;;0.80;99.90;;;;;;5064940;28;20079;-64
2022/04/11 04:04:37;;;;;;;11.32;7.38;;;0.80;99.90;;;;;;5062795;28;20039;-64
2022/04/11 04:07:03;;;;;;;9.82;7.65;;;0.90;99.90;;;;;;5067729;28;20089;-63
2022/04/11 04:09:28;;;;;;;11.93;8.32;;;0.90;99.90;;;;;;5070912;28;20043;-64
2022/04/11 04:11:54;;;;;;;13.63;8.77;;;0.90;99.90;;;;;;5070466;28;20037;-63
2022/04/11 04:14:19;;;;;;;11.48;8.75;;;0.90;99.90;;;;;;5070672;28;20555;-64
2022/04/11 04:16:45;;;;;;;12.13;8.30;;;0.90;99.90;;;;;;5069984;28;20406;-63
2022/04/11 04:19:12;;;;;;;14.95;8.38;;;1.00;99.90;;;;;;5068437;28;20045;-63
2022/04/11 04:21:38;;;;;;;11.45;7.47;;;1.00;99.90;;;;;;5070676;28;20056;-63
2022/04/11 04:24:04;;;;;;;19.50;7.53;;;1.00;99.90;;;;;;5070206;28;20040;-64
2022/04/11 04:26:30;;;;;;;8.88;6.88;;;1.00;99.90;;;;;;5069968;28;20044;-64
2022/04/11 04:28:56;;;;;;;11.27;7.00;;;1.10;99.90;;;;;;5071067;28;20472;-63
2022/04/11 04:31:21;;;;;;;10.38;7.13;;;1.10;99.90;;;;;;5068347;28;20135;-64
2022/04/11 04:33:47;;;;;;;11.02;7.88;;;1.10;99.90;;;;;;5068997;28;20195;-64
2022/04/11 04:36:12;;;;;;;12.00;7.47;;;1.10;99.90;;;;;;5070218;28;20048;-64
2022/04/11 04:38:38;;;;;;;12.48;7.60;;;1.20;99.90;;;;;;5052437;28;20418;-63
2022/04/11 04:41:04;;;;;;;9.57;7.18;;;1.20;99.90;;;;;;5069281;28;20048;-63
2022/04/11 04:43:29;;;;;;;11.40;6.95;;;1.20;99.90;;;;;;5061781;28;20444;-64
2022/04/11 04:45:55;;;;;;;10.20;6.88;;;1.30;99.90;;;;;;5067450;28;20048;-64
2022/04/11 04:48:21;;;;;;;9.98;6.93;;;1.30;99.90;;;;;;5068192;28;20051;-64
2022/04/11 04:50:46;;;;;;;13.10;7.43;;;1.30;99.90;;;;;;5067773;28;20116;-63
2022/04/11 04:53:13;;;;;;;11.25;7.70;;;1.30;99.90;;;;;;5070521;28;20032;-64
2022/04/11 04:55:38;;;;;;;9.43;7.05;;;1.30;99.90;;;;;;5069455;28;20052;-64
2022/04/11 04:58:04;;;;;;;10.15;8.00;;;1.40;99.90;;;;;;5070121;28;20047;-64
2022/04/11 05:00:30;;;;;;;11.38;7.30;;;1.40;99.90;;;;;;5067549;28;20049;-64
2022/04/11 05:02:56;;;;;;;12.00;7.88;;;1.40;99.90;;;;;;5067728;28;20081;-65
2022/04/11 05:05:22;;;;;;;14.57;8.63;;;1.40;99.90;;;;;;5069171;28;20090;-64
2022/04/11 05:07:48;;;;;;;10.02;7.75;;;1.40;99.90;;;;;;5070000;28;20505;-64
2022/04/11 05:10:14;;;;;;;12.20;9.60;;;1.50;99.90;;;;;;5063089;28;20033;-64
2022/04/11 05:12:45;;;;;;;12.27;8.43;;;1.50;99.90;;;;;;5070121;28;20048;-64
2022/04/11 05:15:12;;;;;;;22.48;8.80;;;1.50;99.90;;;;;;5065911;28;20440;-64
2022/04/11 05:17:38;;;;;;;15.98;9.40;;;1.50;99.90;;;;;;5068360;28;20044;-63
2022/04/11 05:20:06;;;;;;;10.63;9.02;;;1.50;99.90;;;;;;5069192;28;20036;-64
2022/04/11 05:22:32;;;;;;;13.05;9.43;;;1.50;99.90;;;;;;5069029;28;20078;-64
2022/04/11 05:24:58;;;;;;;16.83;9.77;;;1.60;99.90;;;;;;5066936;28;20498;-64
2022/04/11 05:27:24;;;;;;;14.13;9.52;;;1.60;99.90;;;;;;5068846;28;20036;-65
2022/04/11 05:29:49;;;;;;;12.18;9.27;;;1.60;99.90;;;;;;5050815;28;20059;-64
2022/04/11 05:32:17;;;;;;;15.43;9.20;;;1.60;99.90;;;;;;5067462;28;20047;-64
2022/04/11 05:34:43;;;;;;;15.02;8.75;;;1.70;99.90;;;;;;5068753;28;20036;-64
2022/04/11 05:37:09;;;;;;;10.25;7.90;;;1.70;99.90;;;;;;5069083;28;20043;-64
2022/04/11 05:39:34;;;;;;;7.88;7.00;;;1.70;99.90;;;;;;5068090;28;20040;-64
2022/04/11 05:42:00;;;;;;;13.02;8.52;;;1.70;99.90;;;;;;5061026;28;20041;-64
2022/04/11 05:44:26;;;;;;;11.32;8.55;;;1.70;99.90;;;;;;5069321;28;20110;-64
2022/04/11 05:46:52;;;;;;;10.70;9.55;;;1.70;99.90;;;;;;5068923;28;20469;-64
2022/04/11 05:49:22;;;;;;;17.30;10.65;;;1.80;99.90;;;;;;5060829;28;20111;-64
2022/04/11 05:51:48;;;;;;;18.35;11.10;;;1.80;99.90;;;;;;5068846;28;20098;-64
2022/04/11 05:54:14;;;;;;;20.42;10.70;;;1.90;99.90;;;;;;5058059;28;20044;-64
2022/04/11 05:56:41;;;;;;;12.68;10.45;;;1.90;99.90;;;;;;5050298;28;20049;-64
2022/04/11 05:59:08;;;;;;;18.73;11.27;;;1.90;99.90;;;;;;5068840;28;20097;-63
2022/04/11 06:01:35;;;;;;;22.50;12.00;;;2.00;99.90;;;;;;5063016;28;20089;-64
2022/04/11 06:04:01;;;;;;;15.35;11.38;;;2.00;99.90;;;;;;5059763;28;20052;-64
2022/04/11 06:06:27;;;;;;;19.27;10.82;;;2.00;99.90;;;;;;5067721;28;20105;-64
2022/04/11 06:08:52;;;;;;;19.55;10.35;;;2.10;99.90;;;;;;5066953;28;20041;-64
2022/04/11 06:11:18;;;;;;;10.45;9.00;;;2.10;99.90;;;;;;5068365;28;20036;-64
2022/04/11 06:13:45;;;;;;;14.52;9.57;;;2.10;99.90;;;;;;5047589;28;20131;-64
2022/04/11 06:16:11;;;;;;;14.48;9.88;;;2.20;99.90;;;;;;5068540;28;20448;-63
2022/04/11 06:18:37;;;;;;;16.75;9.90;;;2.20;99.90;;;;;;5068561;28;20049;-63
2022/04/11 06:21:03;;;;;;;15.68;10.63;;;2.20;99.90;;;;;;5066324;28;20093;-64
2022/04/11 06:23:28;;;;;;;14.85;11.52;;;2.30;99.90;;;;;;5067261;28;20055;-64
2022/04/11 06:25:54;;;;;;;18.40;9.77;;;2.30;99.90;;;;;;5067997;28;20055;-64
2022/04/11 06:28:20;;;;;;;12.63;9.93;;;2.30;99.90;;;;;;5066335;28;20111;-64
2022/04/11 06:30:46;;;;;;;11.35;9.13;;;2.30;99.90;;;;;;5067276;28;20051;-64
2022/04/11 06:33:12;;;;;;;16.27;10.82;;;2.40;99.90;;;;;;5052844;28;20417;-64
2022/04/11 06:35:37;;;;;;;17.13;12.10;;;2.40;99.90;;;;;;5064755;28;20044;-63
2022/04/11 06:38:03;;;;;;;15.68;10.98;;;2.40;99.90;;;;;;5067982;28;20072;-63
2022/04/11 06:40:29;;;;;;;19.45;13.98;;;2.50;99.90;;;;;;5065076;28;20433;-63
2022/04/11 06:42:54;;;;;;;20.98;14.35;;;2.50;99.90;;;;;;5061311;28;20128;-63
2022/04/11 06:45:20;;;;;;;18.77;14.45;;;2.60;99.90;;;;;;5066378;28;20052;-63
2022/04/11 06:47:47;;;;;;;22.60;14.00;;;2.60;99.90;;;;;;5066241;28;20040;-63
2022/04/11 06:50:16;;;;;;;19.48;14.60;;;2.70;99.90;;;;;;5067339;28;20083;-63
2022/04/11 06:52:42;;;;;;;24.33;15.65;;;2.80;99.90;;;;;;5068014;28;20469;-63
2022/04/11 06:55:08;;;;;;;19.13;15.05;;;2.80;99.90;;;;;;5065880;28;20088;-63
2022/04/11 06:57:34;;;;;;;19.30;16.30;;;2.90;99.90;;;;;;5066817;28;20425;-64
2022/04/11 07:00:01;;;;;;;27.55;18.30;;;2.90;99.90;;;;;;5065708;28;20041;-63
2022/04/11 07:02:27;;;;;;;23.67;18.35;;;2.90;99.90;;;;;;5064241;28;20057;-64
2022/04/11 07:04:53;;;;;;;24.10;19.25;;;3.00;99.90;;;;;;5063004;28;20489;-63
2022/04/11 07:07:19;;;;;;;23.05;18.67;;;3.10;99.90;;;;;;5066600;28;20028;-64
2022/04/11 07:09:46;;;;;;;22.77;17.42;;;3.10;99.90;;;;;;5046062;28;20099;-73
2022/04/11 07:12:11;;;;;;;23.10;19.50;;;3.20;99.90;;;;;;5063467;28;20041;-74
2022/04/11 07:14:37;;;;;;;24.73;17.15;;;3.30;99.90;;;;;;5066430;28;20094;-74
2022/04/11 07:17:04;;;;;;;24.25;19.10;;;3.30;99.90;;;;;;5066183;28;20478;-75
2022/04/11 07:19:30;;;;;;;26.13;17.92;;;3.40;99.90;;;;;;5064562;28;20048;-74
2022/04/11 07:21:55;;;;;;;20.52;17.70;;;3.50;99.90;;;;;;5062549;28;20087;-74
2022/04/11 07:24:21;;;;;;;25.48;19.00;;;3.60;99.90;;;;;;5066866;28;20414;-74
2022/04/11 07:26:47;;;;;;;19.98;17.83;;;3.60;99.90;;;;;;5066855;28;20048;-74
2022/04/11 07:29:12;;;;;;;26.17;18.77;;;3.70;99.90;;;;;;5067196;28;20052;-74
2022/04/11 07:31:38;;;;;;;25.58;18.60;;;3.70;99.90;;;;;;5066122;28;20055;-74
2022/04/11 07:34:04;;;;;;;24.52;18.60;;;3.80;99.90;;;;;;5050113;28;20130;-74
2022/04/11 07:36:30;;;;;;;25.48;19.13;;;3.90;99.90;;;;;;5067498;28;20402;-74
2022/04/11 07:38:56;;;;;;;27.55;18.67;;;3.90;99.90;;;;;;5066834;28;20090;-74
2022/04/11 07:41:23;;;;;;;25.70;19.00;;;4.00;99.90;;;;;;5069067;28;20048;-74
2022/04/11 07:43:50;;;;;;;30.00;20.02;;;4.10;99.90;;;;;;5070036;28;20049;-74
2022/04/11 07:46:15;;;;;;;23.98;20.15;;;4.20;99.90;;;;;;5051600;28;20418;-73
2022/04/11 07:48:45;;;;;;;26.63;18.75;;;4.30;99.90;;;;;;5055669;28;20036;-73
2022/04/11 07:51:11;;;;;;;22.25;17.60;;;4.40;99.90;;;;;;5069381;28;20048;-73
2022/04/11 07:53:37;;;;;;;22.30;18.40;;;4.50;99.90;;;;;;5071696;28;20044;-73
2022/04/11 07:56:02;;;;;;;23.75;18.33;;;4.60;99.90;;;;;;5064598;28;20049;-74
2022/04/11 07:58:28;;;;;;;20.48;18.30;;;4.70;99.90;;;;;;5047368;28;20129;-73
2022/04/11 08:00:54;;;;;;;23.50;17.23;;;4.80;99.90;;;;;;5069287;28;20041;-72
2022/04/11 08:03:20;;;;;;;19.40;17.38;;;4.90;99.90;;;;;;5065215;28;20135;-73
2022/04/11 08:05:46;;;;;;;21.95;17.25;;;5.00;99.90;;;;;;5067050;28;20045;-73
2022/04/11 08:08:12;;;;;;;22.98;18.45;;;5.20;99.90;;;;;;5066802;28;20089;-73
2022/04/11 08:10:39;;;;;;;25.35;17.48;;;5.30;99.90;;;;;;5068149;28;20048;-73
2022/04/11 08:13:05;;;;;;;19.65;16.25;;;5.40;99.90;;;;;;5068780;28;20059;-73
2022/04/11 08:15:31;;;;;;;26.42;17.15;;;5.50;99.90;;;;;;5068609;28;20052;-73
2022/04/11 08:17:58;;;;;;;22.33;17.45;;;5.60;99.90;;;;;;5067575;28;21091;-73
2022/04/11 08:20:24;;;;;;;21.60;17.08;;;5.80;99.90;;;;;;5064940;28;20057;-73
2022/04/11 08:22:52;;;;;;;23.75;18.02;;;6.10;99.90;;;;;;5055515;28;20547;-73
2022/04/11 08:25:18;;;;;;;19.70;17.63;;;6.40;99.90;;;;;;5069238;28;20500;-73
2022/04/11 08:27:44;;;;;;;23.73;17.42;;;6.70;99.90;;;;;;5069058;28;20048;-73
2022/04/11 08:30:12;;;;;;;18.95;16.40;;;6.90;99.90;;;;;;5069228;28;20482;-73
2022/04/11 08:32:39;;;;;;;;;;;7.20;99.90;;;;;;5069482;28;20448;-72
2022/04/11 08:35:05;;;;;;;20.30;16.60;;;7.30;99.90;;;;;;5069355;28;19920;-73
2022/04/11 08:37:31;;;;;;;22.02;15.85;;;7.40;99.90;;;;;;5069355;28;20049;-73
2022/04/11 08:39:56;;;;;;;19.27;16.58;;;7.60;99.90;;;;;;5069571;28;20572;-73
2022/04/11 08:42:23;;;;;;;23.40;17.00;;;7.80;99.90;;;;;;5069711;28;20049;-73
2022/04/11 08:44:55;;;;;;;25.05;15.48;;;8.00;99.90;;;;;;5067076;28;21792;-73
2022/04/11 08:47:21;;;;;;;18.55;15.77;;;8.20;99.90;;;;;;5066005;28;20072;-73
2022/04/11 08:49:47;;;;;;;22.60;16.50;;;8.40;99.90;;;;;;5066419;28;20083;-71
2022/04/11 08:52:14;;;;;;;24.50;15.73;;;8.60;99.90;;;;;;5067702;28;20032;-72
2022/04/11 08:54:39;;;;;;;25.80;16.38;;;8.80;99.90;;;;;;5069117;28;20060;-72
2022/04/11 08:57:05;;;;;;;19.50;14.80;;;9.10;99.90;;;;;;5066700;28;20410;-72
2022/04/11 08:59:34;;;;;;;24.83;16.88;;;9.40;99.90;;;;;;5068039;28;20145;-71
2022/04/11 09:02:00;;;;;;;21.38;15.40;;;9.60;99.90;;;;;;5068503;28;20524;-71
2022/04/11 09:04:26;;;;;;;21.65;15.48;;;9.70;99.90;;;;;;5068688;28;20145;-71
2022/04/11 09:06:56;;;;;;;22.40;14.18;;;9.80;99.90;;;;;;5069306;28;20748;-71
2022/04/11 09:09:38;;;;;;;17.98;13.30;;;10.00;99.90;;;;;;5069996;28;20512;-71
2022/04/11 09:12:04;;;;;;;25.75;15.00;;;10.20;99.90;;;;;;5067279;28;20048;-72
2022/04/11 09:14:30;;;;;;;18.02;14.30;;;10.40;99.90;;;;;;5068018;28;20051;-71
2022/04/11 09:16:56;;;;;;;21.65;12.60;;;10.60;99.90;;;;;;5065953;28;20047;-72
2022/04/11 09:19:27;;;;;;;14.52;10.90;;;10.90;99.90;;;;;;5067502;28;20060;-71
2022/04/11 09:21:57;;;;;;;14.82;11.43;;;10.90;99.90;;;;;;5065630;28;20117;-71
2022/04/11 09:24:26;;;;;;;23.15;12.50;;;11.10;99.90;;;;;;5067938;28;20842;-71
2022/04/11 09:26:55;;;;;;;16.20;11.63;;;11.30;99.90;;;;;;5067788;28;20068;-71
2022/04/11 09:29:23;;;;;;;11.30;8.98;;;11.40;99.90;;;;;;5068729;28;20044;-70
2022/04/11 09:31:48;;;;;;;25.23;12.73;;;11.10;99.90;;;;;;5069135;28;20402;-71
2022/04/11 09:34:14;;;;;;;16.70;12.23;;;11.00;99.90;;;;;;5068286;28;20041;-71
2022/04/11 09:36:51;;;;;;;13.73;8.93;;;11.20;99.90;;;;;;5069007;28;20040;-70
2022/04/11 09:39:26;;;;;;;13.82;10.25;;;11.10;99.90;;;;;;5063255;28;20071;-70
2022/04/11 09:41:52;;;;;;;20.17;9.82;;;10.80;99.90;;;;;;5054931;28;20048;-71
2022/04/11 09:44:23;;;;;;;11.55;10.07;;;10.90;99.90;;;;;;5066015;28;20119;-70
2022/04/11 09:46:51;;;;;;;11.23;8.70;;;10.90;99.90;;;;;;5067234;28;20068;-72
2022/04/11 09:49:17;;;;;;;16.08;11.50;;;11.20;99.90;;;;;;5065687;28;20084;-71
2022/04/11 09:52:06;;;;;;;16.67;9.25;;;11.30;99.90;;;;;;5067649;28;20450;-71
2022/04/11 09:54:32;;;;;;;11.32;7.20;;;11.40;99.20;;;;;;5067383;28;20047;-71
2022/04/11 09:56:59;;;;;;;11.13;8.38;;;11.50;99.40;;;;;;5067376;28;20072;-71
2022/04/11 09:59:26;;;;;;;14.13;9.32;;;11.70;96.50;;;;;;5066370;28;20054;-69
2022/04/11 10:01:53;;;;;;;9.50;8.50;;;11.90;95.60;;;;;;5065940;28;20044;-71
2022/04/11 10:04:19;;;;;;;8.88;7.47;;;11.90;95.30;;;;;;5065935;28;20083;-71
2022/04/11 10:06:45;;;;;;;11.35;7.15;;;12.10;93.40;;;;;;5056258;28;20402;-71
2022/04/11 10:09:13;;;;;;;19.33;9.25;;;11.90;91.50;;;;;;5070261;28;20098;-72
2022/04/11 10:11:45;;;;;;;14.73;6.57;;;12.10;91.60;;;;;;5069003;28;20417;-73
2022/04/11 10:14:13;;;;;;;17.17;7.85;;;12.00;83.60;;;;;;5067744;28;20080;-71
2022/04/11 10:16:43;;;;;;;8.32;6.15;;;12.00;85.10;;;;;;5057382;28;20589;-71
2022/04/11 10:19:11;;;;;;;8.50;6.80;;;11.80;81.00;;;;;;5066692;28;20059;-71
2022/04/11 10:21:40;;;;;;;9.07;5.87;;;11.80;84.50;;;;;;5051146;28;20053;-72
2022/04/11 10:24:13;;;;;;;13.70;7.28;;;11.80;82.70;;;;;;5067314;28;20040;-71
2022/04/11 10:26:46;;;;;;;9.35;6.38;;;12.00;87.60;;;;;;5068668;28;20106;-72
2022/04/11 10:29:36;;;;;;;10.70;6.75;;;12.00;79.10;;;;;;5067199;28;20114;-72
2022/04/11 10:32:15;;;;;;;13.63;6.95;;;12.00;79.30;;;;;;5058240;28;20056;-72
2022/04/11 10:35:02;;;;;;;9.30;5.72;;;12.00;80.40;;;;;;5067586;28;20127;-73
2022/04/11 10:37:38;;;;;;;16.45;7.15;;;12.20;77.50;;;;;;5047818;28;20045;-72
2022/04/11 10:40:16;;;;;;;12.02;6.65;;;12.40;80.40;;;;;;5066460;28;20044;-72
2022/04/11 10:43:08;;;;;;;7.72;5.95;;;12.60;74.20;;;;;;5067598;28;20056;-72
2022/04/11 10:45:36;;;;;;;9.07;6.25;;;12.50;75.80;;;;;;5067195;28;20060;-72
2022/04/11 10:48:06;;;;;;;7.38;5.93;;;12.40;77.10;;;;;;5066479;28;20036;-72
2022/04/11 10:50:35;;;;;;;16.88;6.38;;;12.30;70.10;;;;;;5067313;28;20486;-71
2022/04/11 10:53:25;;;;;;;8.68;6.50;;;12.40;74.90;;;;;;5069007;28;20048;-71
2022/04/11 10:55:58;;;;;;;9.23;7.32;;;12.60;67.30;;;;;;5067643;28;20459;-72
2022/04/11 10:58:47;;;;;;;8.63;6.15;;;12.70;70.90;;;;;;5066940;28;20049;-71
2022/04/11 11:01:13;;;;;;;10.18;6.60;;;12.80;62.90;;;;;;5048441;28;20088;-71
2022/04/11 11:03:42;;;;;;;10.90;6.68;;;12.90;69.00;;;;;;5066618;28;20057;-72
2022/04/11 11:06:16;;;;;;;17.50;7.28;;;12.90;67.60;;;;;;5067018;28;20075;-72
2022/04/11 11:08:42;;;;;;;9.20;6.57;;;12.70;67.40;;;;;;5047975;28;20048;-72
2022/04/11 11:11:25;;;;;;;9.23;6.35;;;12.80;66.80;;;;;;5054819;28;20044;-72
2022/04/11 11:13:52;;;;;;;9.02;6.20;;;12.80;63.60;;;;;;5068392;28;20056;-71
2022/04/11 11:16:20;;;;;;;7.28;5.63;;;12.90;68.90;;;;;;5069095;28;20037;-71
2022/04/11 11:18:46;;;;;;;12.40;5.70;;;12.90;66.60;;;;;;5055414;28;20044;-72
2022/04/11 11:21:13;;;;;;;9.50;6.10;;;13.20;64.70;;;;;;5071319;28;20706;-76
2022/04/11 11:23:39;;;;;;;12.32;7.05;;;13.20;62.70;;;;;;5071895;28;20050;-71
2022/04/11 11:26:13;;;;;;;12.73;8.27;;;13.40;63.30;;;;;;5071319;28;20456;-71
2022/04/11 11:28:45;;;;;;;17.98;7.78;;;13.40;62.10;;;;;;5071907;28;20389;-71
2022/04/11 11:31:10;;;;;;;12.73;9.70;;;13.40;61.80;;;;;;5071389;28;20119;-74
2022/04/11 11:33:36;;;;;;;16.88;10.15;;;13.60;63.20;;;;;;5071004;28;20140;-73
2022/04/11 11:36:03;;;;;;;15.40;9.90;;;13.50;63.10;;;;;;5070740;28;20032;-72
2022/04/11 11:38:31;;;;;;;15.70;9.15;;;13.60;63.90;;;;;;5071420;28;20493;-72
2022/04/11 11:40:59;;;;;;;18.75;10.00;;;13.60;64.60;;;;;;5071591;28;20040;-71
2022/04/11 11:43:27;;;;;;;22.30;12.30;;;13.50;64.60;;;;;;5071168;28;20055;-71
2022/04/11 11:45:57;;;;;;;15.10;10.82;;;13.70;66.20;;;;;;5070116;28;20425;-73
2022/04/11 11:48:30;;;;;;;17.67;11.85;;;13.80;66.70;;;;;;5071228;28;20413;-73
2022/04/11 11:50:59;;;;;;;20.80;11.25;;;13.90;64.50;;;;;;5062851;28;20406;-73
2022/04/11 11:53:25;;;;;;;;;;;13.80;70.70;;;;;;5054822;28;20136;-74
2022/04/11 11:55:53;;;;;;;21.38;13.40;;;13.70;63.80;;;;;;5071055;28;19920;-72
2022/04/11 11:58:20;;;;;;;17.27;11.93;;;13.80;67.10;;;;;;5069354;28;20391;-71
2022/04/11 12:00:47;;;;;;;15.07;12.38;;;13.60;65.00;;;;;;5054710;28;20122;-71
2022/04/11 12:06:03;;;;;;;18.98;13.20;;;13.80;66.30;;;;;;5051343;28;20053;-72
2022/04/11 12:08:32;;;;;;;16.57;12.03;;;14.00;64.70;;;;;;5062645;28;20040;-71
2022/04/11 12:10:59;;;;;;;21.52;13.52;;;14.00;66.50;;;;;;5060363;28;20081;-73
2022/04/11 12:13:30;;;;;;;19.00;12.98;;;14.00;66.20;;;;;;5062036;28;20052;-73
2022/04/11 12:16:19;;;;;;;57.83;16.55;;;14.00;63.00;;;;;;5061682;28;20041;-74
2022/04/11 12:18:59;;;;;;;22.52;14.15;;;13.90;63.00;;;;;;5050421;28;20459;-75
2022/04/11 12:21:32;;;;;;;20.35;13.75;;;13.90;65.40;;;;;;5052756;28;20080;-74
2022/04/11 12:23:58;;;;;;;30.17;15.02;;;14.00;63.50;;;;;;5053950;28;20091;-74
2022/04/11 12:26:32;;;;;;;25.58;15.57;;;14.10;63.90;;;;;;5062679;28;20048;-72
2022/04/11 12:29:02;;;;;;;23.02;16.08;;;14.30;62.20;;;;;;5060118;28;20490;-73
2022/04/11 12:31:28;;;;;;;25.92;15.07;;;14.20;62.50;;;;;;5049808;28;20045;-73
2022/04/11 12:33:54;;;;;;;19.45;14.23;;;14.30;63.80;;;;;;5057034;28;20044;-72
2022/04/11 12:36:26;;;;;;;19.77;15.45;;;14.30;63.60;;;;;;5070556;28;20048;-73
2022/04/11 12:38:52;;;;;;;18.65;14.02;;;14.40;61.70;;;;;;5052481;28;20124;-74
2022/04/11 12:41:36;;;;;;;25.30;16.45;;;14.60;62.50;;;;;;5065923;28;20139;-73
2022/04/11 12:44:08;;;;;;;26.95;16.75;;;14.70;61.10;;;;;;5069088;28;20047;-73
2022/04/11 12:46:45;;;;;;;28.48;16.35;;;14.80;60.30;;;;;;5068705;28;20460;-74